createdAt,value
2018-12-02T00:01:00.806Z,2.50
2018-12-02T00:03:29.477Z,2.47
2018-12-02T00:05:58.065Z,2.44
2018-12-02T00:08:26.699Z,2.44
2018-12-02T00:10:55.376Z,2.37
2018-12-02T00:13:24.048Z,2.32
2018-12-02T00:15:54.517Z,2.10
2018-12-02T00:18:23.661Z,2.10
2018-12-02T00:20:52.273Z,2.07
2018-12-02T00:23:20.998Z,1.97
2018-12-02T00:25:49.589Z,1.97
2018-12-02T00:28:18.171Z,1.86
2018-12-02T00:30:47.674Z,1.83
2018-12-02T00:33:16.328Z,1.79
2018-12-02T00:35:45.014Z,1.71
2018-12-02T00:38:14.374Z,1.70
2018-12-02T00:40:42.952Z,1.67
2018-12-02T00:43:11.654Z,1.56
2018-12-02T00:45:40.429Z,1.63
2018-12-02T00:48:10.377Z,1.68
2018-12-02T00:50:38.957Z,1.66
2018-12-02T00:53:09.671Z,1.64
2018-12-02T00:55:39.967Z,1.69
2018-12-02T00:58:08.757Z,1.67
2018-12-02T01:00:37.902Z,1.68
2018-12-02T01:03:08.316Z,1.71
2018-12-02T01:05:37.016Z,1.66
2018-12-02T01:08:06.962Z,1.66
2018-12-02T01:10:36.040Z,1.68
2018-12-02T01:13:05.325Z,1.67
2018-12-02T01:15:34.712Z,1.65
2018-12-02T01:18:03.543Z,1.63
2018-12-02T01:20:32.956Z,1.63
2018-12-02T01:23:01.632Z,1.67
2018-12-02T01:25:30.641Z,1.65
2018-12-02T01:27:59.216Z,1.69
2018-12-02T01:30:28.010Z,1.70
2018-12-02T01:32:56.845Z,1.72
2018-12-02T01:35:25.528Z,1.75
2018-12-02T01:37:54.409Z,1.79
2018-12-02T01:40:24.245Z,1.80
2018-12-02T01:42:53.856Z,1.83
2018-12-02T01:45:23.656Z,1.85
2018-12-02T01:47:53.041Z,1.88
2018-12-02T01:50:23.724Z,1.85
2018-12-02T01:52:53.441Z,1.85
2018-12-02T01:55:22.220Z,1.86
2018-12-02T01:57:50.962Z,1.86
2018-12-02T02:00:21.973Z,1.82
2018-12-02T02:02:51.061Z,1.82
2018-12-02T02:05:20.715Z,1.84
2018-12-02T02:07:49.563Z,1.83
2018-12-02T02:10:20.337Z,1.83
2018-12-02T02:12:49.401Z,1.83
2018-12-02T02:15:19.232Z,1.76
2018-12-02T02:17:48.448Z,1.73
2018-12-02T02:20:18.922Z,1.67
2018-12-02T02:22:48.477Z,1.67
2018-12-02T02:25:18.309Z,1.64
2018-12-02T02:27:51.154Z,1.61
2018-12-02T02:30:21.757Z,1.59
2018-12-02T02:32:50.444Z,1.55
2018-12-02T02:35:21.023Z,1.51
2018-12-02T02:37:50.909Z,1.43
2018-12-02T02:40:22.832Z,1.36
2018-12-02T02:42:51.804Z,1.32
2018-12-02T02:45:20.818Z,1.27
2018-12-02T02:47:49.480Z,1.25
2018-12-02T02:50:22.031Z,1.22
2018-12-02T02:52:55.806Z,1.19
2018-12-02T02:55:24.417Z,1.16
2018-12-02T02:57:53.110Z,1.12
2018-12-02T03:00:22.882Z,1.08
2018-12-02T03:02:51.691Z,1.06
2018-12-02T03:05:20.569Z,1.03
2018-12-02T03:07:49.260Z,1.02
2018-12-02T03:13:09.429Z,0.92
2018-12-02T03:15:38.097Z,0.86
2018-12-02T03:18:07.201Z,0.85
2018-12-02T03:20:35.996Z,0.81
2018-12-02T03:23:05.101Z,0.80
2018-12-02T03:25:33.918Z,0.74
2018-12-02T03:28:02.682Z,0.75
2018-12-02T03:30:31.481Z,0.71
2018-12-02T03:33:00.062Z,0.71
2018-12-02T03:35:28.687Z,0.72
2018-12-02T03:37:57.545Z,0.77
2018-12-02T03:40:27.637Z,0.75
2018-12-02T03:42:56.520Z,0.80
2018-12-02T03:45:26.278Z,0.81
2018-12-02T03:47:54.857Z,0.82
2018-12-02T03:50:24.390Z,0.84
2018-12-02T03:52:53.344Z,0.91
2018-12-02T03:55:22.022Z,0.87
2018-12-02T03:57:50.718Z,0.83
2018-12-02T04:00:20.200Z,0.83
2018-12-02T04:02:49.646Z,0.79
2018-12-02T04:05:19.551Z,0.79
2018-12-02T04:07:48.153Z,0.71
2018-12-02T04:10:17.724Z,0.65
2018-12-02T04:12:47.305Z,0.66
2018-12-02T04:15:17.779Z,0.58
2018-12-02T04:17:47.181Z,0.51
2018-12-02T04:20:17.066Z,0.45
2018-12-02T04:22:46.869Z,0.38
2018-12-02T04:25:17.189Z,0.38
2018-12-02T04:27:46.463Z,0.34
2018-12-02T04:30:18.663Z,0.34
2018-12-02T04:32:49.638Z,0.31
2018-12-02T04:35:23.519Z,0.30
2018-12-02T04:37:53.937Z,0.28
2018-12-02T04:40:23.453Z,0.21
2018-12-02T04:42:53.470Z,0.19
2018-12-02T04:45:24.201Z,0.15
2018-12-02T04:47:54.081Z,0.12
2018-12-02T04:50:24.006Z,0.05
2018-12-02T04:52:53.409Z,0.04
2018-12-02T04:55:23.277Z,-0.02
2018-12-02T04:57:53.651Z,-0.05
2018-12-02T05:00:23.473Z,-0.06
2018-12-02T05:02:53.212Z,-0.10
2018-12-02T05:05:25.289Z,-0.18
2018-12-02T05:07:55.037Z,-0.17
2018-12-02T05:10:24.112Z,-0.15
2018-12-02T05:12:54.377Z,-0.25
2018-12-02T05:15:23.846Z,-0.25
2018-12-02T05:17:53.046Z,-0.29
2018-12-02T05:20:22.666Z,-0.32
2018-12-02T05:22:52.552Z,-0.31
2018-12-02T05:25:22.856Z,-0.36
2018-12-02T05:27:52.122Z,-0.35
2018-12-02T05:30:22.202Z,-0.37
2018-12-02T05:32:52.214Z,-0.45
2018-12-02T05:35:21.514Z,-0.48
2018-12-02T05:37:51.596Z,-0.53
2018-12-02T05:40:23.764Z,-0.54
2018-12-02T05:42:54.275Z,-0.57
2018-12-02T05:45:24.171Z,-0.57
2018-12-02T05:47:54.293Z,-0.66
2018-12-02T05:50:25.187Z,-0.68
2018-12-02T05:52:57.086Z,-0.71
2018-12-02T05:55:30.994Z,-0.74
2018-12-02T05:58:00.979Z,-0.75
2018-12-02T06:00:31.421Z,-0.76
2018-12-02T06:03:00.709Z,-0.78
2018-12-02T06:05:30.966Z,-0.82
2018-12-02T06:08:00.635Z,-0.85
2018-12-02T06:10:29.752Z,-0.84
2018-12-02T06:12:59.072Z,-0.84
2018-12-02T06:15:28.580Z,-0.84
2018-12-02T06:17:58.516Z,-0.86
2018-12-02T06:20:27.796Z,-0.84
2018-12-02T06:22:58.679Z,-0.88
2018-12-02T06:25:28.290Z,-0.91
2018-12-02T06:27:57.678Z,-0.86
2018-12-02T06:30:28.653Z,-0.85
2018-12-02T06:32:58.800Z,-0.89
2018-12-02T06:35:27.976Z,-0.87
2018-12-02T06:37:57.824Z,-0.90
2018-12-02T06:40:28.646Z,-0.92
2018-12-02T06:42:58.041Z,-0.95
2018-12-02T06:45:28.667Z,-0.98
2018-12-02T06:47:58.466Z,-0.98
2018-12-02T06:50:28.840Z,-0.92
2018-12-02T06:52:58.400Z,-0.93
2018-12-02T06:55:41.713Z,-0.89
2018-12-02T06:58:32.565Z,-0.83
2018-12-02T07:01:17.975Z,-0.81
2018-12-02T07:03:58.937Z,-0.79
2018-12-02T07:06:28.284Z,-0.71
2018-12-02T07:08:58.004Z,-0.61
2018-12-02T07:11:27.886Z,-0.53
2018-12-02T07:13:57.786Z,-0.43
2018-12-02T07:16:26.973Z,-0.39
2018-12-02T07:18:57.958Z,-0.33
2018-12-02T07:21:29.002Z,-0.25
2018-12-02T07:23:59.840Z,-0.23
2018-12-02T07:26:29.925Z,-0.18
2018-12-02T07:28:59.261Z,-0.17
2018-12-02T07:31:29.459Z,-0.16
2018-12-02T07:33:59.389Z,-0.09
2018-12-02T07:36:29.411Z,-0.02
2018-12-02T07:39:15.425Z,0.08
2018-12-02T07:41:44.940Z,0.38
2018-12-02T07:44:14.833Z,0.60
2018-12-02T07:46:44.114Z,0.71
2018-12-02T07:49:13.277Z,0.74
2018-12-02T07:51:42.537Z,0.70
2018-12-02T07:54:11.861Z,0.71
2018-12-02T07:56:41.761Z,0.79
2018-12-02T07:59:11.449Z,0.84
2018-12-02T08:01:40.688Z,0.87
2018-12-02T08:04:09.879Z,0.85
2018-12-02T08:06:39.501Z,0.80
2018-12-02T08:09:08.799Z,0.77
2018-12-02T08:11:38.225Z,0.82
2018-12-02T08:14:08.519Z,0.80
2018-12-02T08:16:37.804Z,0.84
2018-12-02T08:19:07.612Z,0.94
2018-12-02T08:21:37.432Z,1.11
2018-12-02T08:24:06.982Z,1.28
2018-12-02T08:26:36.988Z,1.49
2018-12-02T08:29:06.302Z,1.70
2018-12-02T08:31:35.709Z,1.81
2018-12-02T08:34:05.321Z,1.89
2018-12-02T08:36:35.293Z,1.91
2018-12-02T08:39:05.033Z,1.93
2018-12-02T08:41:34.768Z,1.87
2018-12-02T08:44:04.556Z,1.86
2018-12-02T08:46:33.309Z,1.88
2018-12-02T08:49:01.865Z,1.85
2018-12-02T08:51:30.543Z,1.82
2018-12-02T08:53:59.157Z,1.77
2018-12-02T08:56:28.453Z,1.80
2018-12-02T08:58:57.014Z,1.84
2018-12-02T09:01:26.065Z,1.92
2018-12-02T09:03:54.688Z,2.06
2018-12-02T09:06:23.277Z,2.17
2018-12-02T09:08:52.013Z,2.37
2018-12-02T09:11:20.705Z,2.64
2018-12-02T09:13:49.919Z,2.96
2018-12-02T09:16:19.104Z,3.12
2018-12-02T09:18:48.348Z,3.16
2018-12-02T09:21:17.055Z,3.24
2018-12-02T09:23:47.460Z,3.30
2018-12-02T09:26:14.488Z,3.30
2018-12-02T09:28:43.281Z,3.36
2018-12-02T09:31:11.926Z,3.40
2018-12-02T09:33:40.564Z,3.41
2018-12-02T09:36:09.189Z,3.56
2018-12-02T09:38:37.796Z,3.70
2018-12-02T09:41:06.910Z,3.74
2018-12-02T09:43:35.578Z,3.66
2018-12-02T09:46:04.312Z,3.60
2018-12-02T09:48:32.973Z,3.55
2018-12-02T09:51:01.674Z,3.49
2018-12-02T09:53:30.729Z,3.46
2018-12-02T09:55:59.414Z,3.39
2018-12-02T09:58:29.985Z,3.32
2018-12-02T10:01:00.564Z,3.19
2018-12-02T10:03:29.413Z,3.13
2018-12-02T10:05:58.018Z,3.14
2018-12-02T10:08:26.824Z,3.11
2018-12-02T10:10:55.489Z,3.12
2018-12-02T10:13:24.584Z,3.20
2018-12-02T10:15:54.047Z,3.28
2018-12-02T10:18:22.677Z,3.30
2018-12-02T10:20:51.404Z,3.28
2018-12-02T10:23:20.143Z,3.20
2018-12-02T10:25:48.909Z,3.22
2018-12-02T10:28:17.460Z,3.23
2018-12-02T10:30:46.373Z,3.32
2018-12-02T10:33:14.938Z,3.33
2018-12-02T10:35:43.718Z,3.38
2018-12-02T10:38:12.341Z,3.46
2018-12-02T10:40:40.959Z,3.56
2018-12-02T10:43:09.546Z,3.63
2018-12-02T10:45:38.451Z,3.66
2018-12-02T10:48:10.177Z,3.71
2018-12-02T10:50:38.873Z,3.73
2018-12-02T10:53:11.971Z,3.74
2018-12-02T10:55:46.972Z,3.74
2018-12-02T10:58:17.553Z,3.74
2018-12-02T11:00:51.824Z,3.77
2018-12-02T11:03:20.562Z,3.73
2018-12-02T11:05:49.928Z,3.80
2018-12-02T11:08:18.597Z,3.82
2018-12-02T11:10:47.229Z,3.91
2018-12-02T11:13:16.508Z,3.95
2018-12-02T11:15:45.819Z,3.96
2018-12-02T11:18:15.145Z,4.04
2018-12-02T11:20:44.729Z,4.11
2018-12-02T11:23:13.415Z,4.14
2018-12-02T11:25:42.159Z,4.15
2018-12-02T11:28:11.363Z,4.21
2018-12-02T11:30:40.549Z,4.22
2018-12-02T11:33:09.751Z,4.23
2018-12-02T11:35:38.434Z,4.20
2018-12-02T11:38:08.218Z,4.29
2018-12-02T11:40:37.804Z,4.30
2018-12-02T11:43:07.655Z,4.26
2018-12-02T11:45:36.482Z,4.26
2018-12-02T11:48:06.430Z,4.33
2018-12-02T11:50:35.401Z,4.41
2018-12-02T11:53:04.046Z,4.40
2018-12-02T11:55:33.265Z,4.38
2018-12-02T11:58:01.985Z,4.26
2018-12-02T12:00:31.778Z,4.17
2018-12-02T12:03:00.713Z,4.16
2018-12-02T12:05:29.609Z,4.10
2018-12-02T12:07:58.556Z,4.07
2018-12-02T12:10:28.342Z,4.11
2018-12-02T12:12:58.804Z,4.17
2018-12-02T12:15:29.202Z,4.16
2018-12-02T12:17:58.435Z,4.13
2018-12-02T12:20:29.067Z,4.19
2018-12-02T12:22:57.818Z,4.17
2018-12-02T12:25:26.868Z,4.18
2018-12-02T12:27:56.679Z,4.11
2018-12-02T12:30:26.837Z,4.12
2018-12-02T12:32:55.661Z,4.02
2018-12-02T12:35:25.825Z,3.95
2018-12-02T12:37:54.689Z,3.94
2018-12-02T12:40:32.201Z,3.90
2018-12-02T12:43:03.229Z,3.87
2018-12-02T12:45:31.873Z,3.87
2018-12-02T12:48:00.521Z,3.89
2018-12-02T12:50:29.277Z,3.93
2018-12-02T12:52:57.919Z,3.94
2018-12-02T12:55:26.484Z,3.98
2018-12-02T12:57:55.124Z,4.01
2018-12-02T13:00:24.358Z,4.03
2018-12-02T13:02:53.393Z,4.06
2018-12-02T13:05:25.322Z,4.11
2018-12-02T13:07:54.980Z,4.17
2018-12-02T13:10:23.657Z,4.20
2018-12-02T13:12:52.718Z,4.24
2018-12-02T13:15:22.600Z,4.24
2018-12-02T13:17:54.796Z,4.29
2018-12-02T13:20:23.958Z,4.30
2018-12-02T13:22:52.613Z,4.34
2018-12-02T13:25:21.241Z,4.36
2018-12-02T13:27:49.965Z,4.31
2018-12-02T13:30:19.772Z,4.25
2018-12-02T13:32:50.642Z,4.24
2018-12-02T13:35:19.283Z,4.25
2018-12-02T13:37:48.126Z,4.34
2018-12-02T13:40:18.292Z,4.38
2018-12-02T13:42:55.237Z,4.42
2018-12-02T13:45:25.243Z,4.45
2018-12-02T13:47:53.997Z,4.45
2018-12-02T13:50:22.901Z,4.38
2018-12-02T13:52:53.774Z,4.39
2018-12-02T13:55:26.049Z,4.34
2018-12-02T13:57:54.952Z,4.33
2018-12-02T14:00:25.825Z,4.34
2018-12-02T14:02:58.670Z,4.26
2018-12-02T14:05:27.417Z,4.25
2018-12-02T14:07:56.003Z,4.22
2018-12-02T14:10:25.048Z,4.14
2018-12-02T14:12:56.960Z,4.07
2018-12-02T14:16:35.417Z,3.92
2018-12-02T14:19:07.728Z,3.80
2018-12-02T14:21:36.551Z,3.76
2018-12-02T14:24:07.370Z,3.81
2018-12-02T14:26:36.968Z,3.81
2018-12-02T14:29:16.424Z,3.78
2018-12-02T14:31:50.250Z,3.78
2018-12-02T14:34:18.937Z,3.73
2018-12-02T14:36:48.241Z,3.68
2018-12-02T14:39:16.897Z,3.67
2018-12-02T14:41:46.230Z,3.65
2018-12-02T14:44:14.795Z,3.65
2018-12-02T14:46:44.211Z,3.61
2018-12-02T14:49:12.949Z,3.58
2018-12-02T14:51:41.581Z,3.55
2018-12-02T14:54:10.696Z,3.53
2018-12-02T14:56:39.593Z,3.53
2018-12-02T14:59:08.488Z,3.51
2018-12-02T15:01:37.161Z,3.51
2018-12-02T15:04:06.987Z,3.51
2018-12-02T15:06:35.624Z,3.47
2018-12-02T15:09:06.396Z,3.44
2018-12-02T15:11:35.267Z,3.38
2018-12-02T15:14:03.876Z,3.35
2018-12-02T15:16:32.528Z,3.28
2018-12-02T15:19:01.908Z,3.27
2018-12-02T15:21:30.586Z,3.30
2018-12-02T15:23:59.229Z,3.24
2018-12-02T15:26:28.261Z,3.24
2018-12-02T15:28:56.897Z,3.13
2018-12-02T15:31:26.242Z,3.01
2018-12-02T15:33:54.973Z,2.94
2018-12-02T15:36:23.713Z,2.90
2018-12-02T15:38:52.288Z,2.82
2018-12-02T15:41:21.192Z,2.75
2018-12-02T15:43:49.761Z,2.72
2018-12-02T15:46:18.345Z,2.67
2018-12-02T15:48:47.639Z,2.66
2018-12-02T15:51:16.472Z,2.59
2018-12-02T15:53:45.142Z,2.54
2018-12-02T15:56:13.764Z,2.56
2018-12-02T15:58:42.624Z,2.58
2018-12-02T16:01:11.396Z,2.60
2018-12-02T16:03:40.352Z,2.58
2018-12-02T16:06:09.025Z,2.59
2018-12-02T16:08:37.592Z,2.62
2018-12-02T16:11:06.493Z,2.60
2018-12-02T16:13:35.201Z,2.62
2018-12-02T16:16:03.777Z,2.65
2018-12-02T16:18:32.397Z,2.61
2018-12-02T16:21:01.052Z,2.63
2018-12-02T16:23:29.635Z,2.62
2018-12-02T16:25:58.562Z,2.61
2018-12-02T16:28:27.681Z,2.66
2018-12-02T16:30:56.646Z,2.65
2018-12-02T16:33:25.570Z,2.64
2018-12-02T16:35:54.226Z,2.70
2018-12-02T16:38:22.882Z,2.70
2018-12-02T16:40:51.477Z,2.69
2018-12-02T16:43:20.209Z,2.71
2018-12-02T16:45:49.514Z,2.72
2018-12-02T16:48:19.026Z,2.73
2018-12-02T16:50:48.601Z,2.75
2018-12-02T16:53:19.800Z,2.73
2018-12-02T16:56:14.469Z,2.69
2018-12-02T16:58:49.157Z,2.68
2018-12-02T17:01:20.208Z,2.68
2018-12-02T17:03:49.484Z,2.69
2018-12-02T17:06:18.134Z,2.70
2018-12-02T17:08:46.719Z,2.71
2018-12-02T17:11:15.346Z,2.71
2018-12-02T17:13:44.777Z,2.76
2018-12-02T17:16:13.363Z,2.74
2018-12-02T17:18:42.100Z,2.72
2018-12-02T17:21:10.649Z,2.71
2018-12-02T17:23:39.224Z,2.71
2018-12-02T17:26:07.843Z,2.74
2018-12-02T17:28:36.489Z,2.76
2018-12-02T17:31:09.817Z,2.81
2018-12-02T17:33:38.513Z,2.87
2018-12-02T17:36:07.201Z,2.88
2018-12-02T17:38:35.936Z,2.92
2018-12-02T17:41:05.760Z,2.95
2018-12-02T17:43:35.157Z,2.95
2018-12-02T17:46:03.933Z,2.96
2018-12-02T17:48:32.897Z,2.99
2018-12-02T17:51:01.474Z,3.00
2018-12-02T17:53:30.083Z,3.01
2018-12-02T17:55:58.980Z,3.02
2018-12-02T17:58:27.677Z,3.05
2018-12-02T18:00:56.916Z,3.08
2018-12-02T18:03:30.705Z,3.09
2018-12-02T18:05:59.927Z,3.10
2018-12-02T18:08:28.617Z,3.13
2018-12-02T18:10:57.549Z,3.15
2018-12-02T18:13:26.250Z,3.20
2018-12-02T18:15:54.851Z,3.25
2018-12-02T18:18:24.993Z,3.29
2018-12-02T18:20:53.868Z,3.29
2018-12-02T18:23:22.611Z,3.35
2018-12-02T18:25:51.552Z,3.40
2018-12-02T18:28:20.402Z,3.43
2018-12-02T18:30:49.081Z,3.50
2018-12-02T18:33:18.187Z,3.50
2018-12-02T18:36:52.176Z,3.52
2018-12-02T18:39:21.788Z,3.52
2018-12-02T18:41:53.302Z,3.52
2018-12-02T18:44:22.264Z,3.61
2018-12-02T18:46:51.135Z,3.61
2018-12-02T18:49:19.865Z,3.65
2018-12-02T18:51:48.658Z,3.70
2018-12-02T18:54:17.719Z,3.74
2018-12-02T18:56:47.027Z,3.76
2018-12-02T18:59:15.920Z,3.74
2018-12-02T19:01:44.604Z,3.76
2018-12-02T19:04:13.314Z,3.78
2018-12-02T19:06:42.086Z,3.73
2018-12-02T19:09:12.508Z,3.73
2018-12-02T19:11:41.222Z,3.73
2018-12-02T19:14:10.192Z,3.74
2018-12-02T19:16:39.213Z,3.74
2018-12-02T19:19:08.597Z,3.72
2018-12-02T19:21:37.926Z,3.75
2018-12-02T19:24:08.030Z,3.76
2018-12-02T19:26:36.718Z,3.74
2018-12-02T19:29:06.557Z,3.72
2018-12-02T19:31:35.244Z,3.68
2018-12-02T19:34:04.291Z,3.70
2018-12-02T19:36:36.191Z,3.77
2018-12-02T19:39:07.726Z,3.78
2018-12-02T19:41:36.545Z,3.77
2018-12-02T19:44:05.643Z,3.77
2018-12-02T19:46:34.381Z,3.75
2018-12-02T19:49:03.166Z,3.74
2018-12-02T19:51:31.813Z,3.72
2018-12-02T19:54:01.013Z,3.73
2018-12-02T19:56:29.831Z,3.71
2018-12-02T19:58:58.468Z,3.76
2018-12-02T20:01:27.116Z,3.78
2018-12-02T20:03:55.793Z,3.76
2018-12-02T20:06:24.448Z,3.75
2018-12-02T20:08:53.025Z,3.73
2018-12-02T20:11:21.656Z,3.74
2018-12-02T20:13:51.020Z,3.77
2018-12-02T20:16:20.387Z,3.77
2018-12-02T20:21:17.869Z,3.77
2018-12-02T20:23:51.898Z,3.75
2018-12-02T20:26:20.674Z,3.74
2018-12-02T20:28:51.665Z,3.72
2018-12-02T20:31:22.517Z,3.74
2018-12-02T20:33:51.122Z,3.72
2018-12-02T20:36:19.868Z,3.72
2018-12-02T20:38:48.635Z,3.70
2018-12-02T20:41:17.252Z,3.70
2018-12-02T20:43:45.836Z,3.68
2018-12-02T20:46:15.028Z,3.62
2018-12-02T20:48:44.071Z,3.60
2018-12-02T20:51:12.849Z,3.59
2018-12-02T20:53:41.480Z,3.59
2018-12-02T20:56:10.145Z,3.57
2018-12-02T20:58:38.861Z,3.56
2018-12-02T21:01:07.672Z,3.58
2018-12-02T21:03:39.439Z,3.61
2018-12-02T21:06:12.481Z,3.62
2018-12-02T21:08:41.078Z,3.60
2018-12-02T21:11:10.271Z,3.58
2018-12-02T21:13:39.121Z,3.57
2018-12-02T21:16:07.775Z,3.51
2018-12-02T21:18:36.373Z,3.53
2018-12-02T21:21:05.413Z,3.55
2018-12-02T21:23:34.388Z,3.61
2018-12-02T21:26:03.673Z,3.60
2018-12-02T21:28:32.469Z,3.60
2018-12-02T21:31:01.055Z,3.62
2018-12-02T21:33:29.773Z,3.67
2018-12-02T21:35:58.464Z,3.65
2018-12-02T21:38:27.768Z,3.69
2018-12-02T21:40:56.469Z,3.72
2018-12-02T21:43:25.761Z,3.73
2018-12-02T21:45:54.922Z,3.72
2018-12-02T21:48:23.753Z,3.71
2018-12-02T21:50:55.103Z,3.68
2018-12-02T21:53:23.739Z,3.66
2018-12-02T21:55:52.369Z,3.76
2018-12-02T21:58:20.992Z,3.78
2018-12-02T22:00:55.041Z,3.78
2018-12-02T22:03:23.758Z,3.78
2018-12-02T22:05:52.415Z,3.78
2018-12-02T22:08:21.033Z,3.79
2018-12-02T22:10:49.930Z,3.78
2018-12-02T22:13:18.748Z,3.80
2018-12-02T22:15:47.413Z,3.76
2018-12-02T22:18:16.125Z,3.74
2018-12-02T22:20:44.827Z,3.73
2018-12-02T22:23:13.702Z,3.72
2018-12-02T22:25:42.506Z,3.73
2018-12-02T22:28:11.182Z,3.71
2018-12-02T22:30:39.814Z,3.70
2018-12-02T22:33:08.690Z,3.74
2018-12-02T22:35:37.376Z,3.75
2018-12-02T22:38:06.316Z,3.77
2018-12-02T22:40:35.713Z,3.79
2018-12-02T22:43:04.698Z,3.79
2018-12-02T22:45:33.312Z,3.87
2018-12-02T22:48:03.085Z,3.90
2018-12-02T22:50:31.753Z,3.92
2018-12-02T22:53:01.163Z,3.93
2018-12-02T22:55:30.064Z,3.96
2018-12-02T22:57:58.749Z,3.95
2018-12-02T23:00:34.266Z,3.97
2018-12-02T23:03:05.984Z,4.01
2018-12-02T23:05:34.637Z,4.03
2018-12-02T23:08:03.364Z,4.07
2018-12-02T23:10:32.109Z,4.08
2018-12-02T23:13:01.249Z,4.11
2018-12-02T23:15:30.469Z,4.06
2018-12-02T23:17:59.096Z,4.09
2018-12-02T23:20:28.027Z,4.11
2018-12-02T23:22:56.817Z,4.16
2018-12-02T23:25:25.425Z,4.19
2018-12-02T23:27:54.098Z,4.20
2018-12-02T23:30:24.160Z,4.29
2018-12-02T23:32:52.795Z,4.25
2018-12-02T23:35:21.520Z,4.28
2018-12-02T23:37:50.189Z,4.31
2018-12-02T23:40:21.872Z,4.32
2018-12-02T23:42:50.641Z,4.37
2018-12-02T23:45:19.432Z,4.37
2018-12-02T23:47:48.261Z,4.37
2018-12-02T23:50:18.120Z,4.40
2018-12-02T23:52:46.841Z,4.42
2018-12-02T23:55:17.239Z,4.47
2018-12-02T23:57:46.337Z,4.46
